Time;durP1;ratioP1;P1;durP2;ratioP2;P2;SDS_P1;SDS_P2;PMS_P1;PMS_P2;Temp;Humidity;BMP_temperature;BMP_pressure;BME280_temperature;BME280_humidity;BME280_pressure;Samples;Min_cycle;Max_cycle;Signal;HPM_P1;HPM_P2
2023/06/01 00:00:15;;;;;;;7.25;4.57;;;18.10;67.90;;;;;;4192031;28;20745;-61
2023/06/01 00:02:59;;;;;;;7.28;3.92;;;18.10;67.90;;;;;;4192345;28;20047;-61
2023/06/01 00:05:40;;;;;;;9.02;3.63;;;18.10;68.10;;;;;;4182749;28;20067;-62
2023/06/01 00:08:22;;;;;;;8.90;4.03;;;18.10;67.70;;;;;;4199584;28;20056;-61
2023/06/01 00:11:05;;;;;;;10.32;3.95;;;18.10;67.30;;;;;;4174750;28;20052;-61
2023/06/01 00:13:48;;;;;;;7.43;3.83;;;18.00;67.20;;;;;;4174459;28;20515;-62
2023/06/01 00:16:28;;;;;;;9.23;3.60;;;18.00;67.50;;;;;;4175176;28;20175;-62
2023/06/01 00:19:11;;;;;;;;;;;18.00;67.60;;;;;;4174365;28;20511;-62
2023/06/01 00:21:53;;;;;;;;;;;18.00;67.70;;;;;;4175399;28;20010;-61
2023/06/01 00:24:34;;;;;;;9.65;4.03;;;18.00;67.50;;;;;;4182243;28;20066;-62
2023/06/01 00:27:15;;;;;;;7.78;3.97;;;18.00;68.00;;;;;;4175247;28;20172;-63
2023/06/01 00:29:57;;;;;;;8.07;3.97;;;18.00;68.00;;;;;;4175503;28;20103;-62
2023/06/01 00:32:38;;;;;;;7.53;3.60;;;18.00;68.10;;;;;;4175386;28;20056;-62
2023/06/01 00:35:19;;;;;;;10.70;3.80;;;17.90;67.90;;;;;;4175234;28;20056;-61
2023/06/01 00:38:00;;;;;;;8.20;4.00;;;17.90;69.10;;;;;;4174901;28;20126;-62
2023/06/01 00:40:41;;;;;;;10.15;4.22;;;17.90;68.20;;;;;;4185161;28;20102;-61
2023/06/01 00:43:22;;;;;;;7.45;3.75;;;17.90;68.10;;;;;;4193209;28;20055;-62
2023/06/01 00:46:04;;;;;;;8.95;4.30;;;17.90;67.90;;;;;;4190490;28;20051;-62
2023/06/01 00:48:46;;;;;;;9.90;4.90;;;17.90;68.00;;;;;;4191541;28;20072;-62
2023/06/01 00:51:27;;;;;;;14.10;4.28;;;17.90;67.70;;;;;;4190145;28;20731;-62
2023/06/01 00:54:08;;;;;;;10.13;3.72;;;17.90;67.80;;;;;;4190592;28;20499;-62
2023/06/01 00:56:50;;;;;;;11.98;4.07;;;17.90;67.70;;;;;;4191103;28;20079;-62
2023/06/01 00:59:31;;;;;;;10.73;4.75;;;17.90;69.10;;;;;;4197891;28;20047;-62
2023/06/01 01:02:15;;;;;;;14.90;4.20;;;17.90;68.20;;;;;;4189993;28;20509;-62
2023/06/01 01:04:59;;;;;;;8.15;4.00;;;17.90;67.60;;;;;;4175333;28;20044;-62
2023/06/01 01:07:52;;;;;;;11.18;4.95;;;17.80;68.60;;;;;;4178259;28;20064;-62
2023/06/01 01:10:36;;;;;;;12.02;4.78;;;17.90;67.70;;;;;;4165372;28;20083;-61
2023/06/01 01:13:23;;;;;;;10.93;4.97;;;17.80;67.50;;;;;;4192466;28;20506;-60
2023/06/01 01:16:08;;;;;;;9.27;4.50;;;17.80;67.50;;;;;;4196476;28;20478;-61
2023/06/01 01:18:58;;;;;;;8.25;4.43;;;17.90;67.80;;;;;;4197182;28;20094;-61
2023/06/01 01:21:49;;;;;;;8.15;3.78;;;17.80;67.80;;;;;;4176783;28;20067;-61
2023/06/01 01:24:43;;;;;;;8.02;3.70;;;17.80;68.20;;;;;;4177835;28;20052;-61
2023/06/01 01:27:37;;;;;;;8.50;3.83;;;17.80;68.10;;;;;;4185535;28;20076;-61
2023/06/01 01:30:23;;;;;;;5.63;3.67;;;17.80;67.70;;;;;;4176634;28;20515;-59
2023/06/01 01:33:04;;;;;;;7.28;3.53;;;17.80;67.40;;;;;;4191585;28;20553;-60
2023/06/01 01:35:46;;;;;;;7.18;3.78;;;17.80;67.70;;;;;;4194212;28;20051;-60
2023/06/01 01:38:26;;;;;;;8.18;4.18;;;17.80;68.10;;;;;;4194816;28;20056;-60
2023/06/01 01:41:07;;;;;;;8.10;3.67;;;17.80;68.10;;;;;;4193907;28;20047;-60
2023/06/01 01:43:49;;;;;;;8.95;4.43;;;17.80;67.90;;;;;;4194444;28;20290;-60
2023/06/01 01:46:33;;;;;;;;;;;17.80;68.00;;;;;;4193088;28;20047;-60
2023/06/01 01:49:20;;;;;;;7.78;3.17;;;17.80;68.00;;;;;;4192614;28;20069;-60
2023/06/01 01:52:08;;;;;;;7.70;3.25;;;17.80;67.70;;;;;;4193280;28;20182;-60
2023/06/01 01:54:50;;;;;;;9.20;3.33;;;17.80;67.80;;;;;;4193619;28;20059;-59
2023/06/01 01:57:34;;;;;;;5.55;3.55;;;17.80;67.80;;;;;;4200826;28;20753;-60
2023/06/01 02:00:16;;;;;;;9.77;3.90;;;17.80;67.80;;;;;;4209020;28;20055;-59
2023/06/01 02:02:58;;;;;;;7.53;3.42;;;17.80;67.80;;;;;;4175973;28;20104;-59
2023/06/01 02:05:39;;;;;;;7.47;3.33;;;17.80;67.90;;;;;;4176972;28;20052;-60
2023/06/01 02:08:20;;;;;;;9.55;3.53;;;17.70;68.30;;;;;;4196367;28;20629;-59
2023/06/01 02:11:02;;;;;;;5.05;3.13;;;17.80;68.00;;;;;;4203700;28;20048;-59
2023/06/01 02:13:43;;;;;;;7.10;3.90;;;17.80;68.00;;;;;;4193432;28;20758;-60
2023/06/01 02:16:25;;;;;;;8.20;3.67;;;17.70;68.30;;;;;;4201892;28;20510;-60
2023/06/01 02:19:10;;;;;;;7.13;3.45;;;17.70;68.40;;;;;;4210144;28;20051;-60
2023/06/01 02:21:52;;;;;;;7.47;4.03;;;17.70;68.60;;;;;;4209189;28;20055;-60
2023/06/01 02:24:33;;;;;;;6.32;3.60;;;17.70;68.60;;;;;;4198509;28;20040;-60
2023/06/01 02:27:14;;;;;;;8.13;3.60;;;17.70;68.60;;;;;;4192253;28;20047;-60
2023/06/01 02:29:55;;;;;;;10.93;4.45;;;17.80;68.80;;;;;;4193479;28;20051;-61
2023/06/01 02:32:37;;;;;;;;;;;17.70;68.70;;;;;;4192955;28;20541;-61
2023/06/01 02:35:20;;;;;;;;;;;17.80;68.70;;;;;;4192764;28;19928;-60
2023/06/01 02:38:02;;;;;;;5.72;3.22;;;17.70;68.10;;;;;;4191554;28;19927;-61
2023/06/01 02:40:44;;;;;;;9.90;2.60;;;17.70;68.40;;;;;;4190832;28;20062;-61
2023/06/01 02:43:25;;;;;;;3.33;2.40;;;17.70;67.70;;;;;;4191175;28;20071;-61
2023/06/01 02:46:06;;;;;;;4.60;2.58;;;17.70;67.50;;;;;;4193014;28;20051;-61
2023/06/01 02:48:52;;;;;;;6.00;2.63;;;17.70;67.50;;;;;;4192990;28;20048;-61
2023/06/01 02:51:35;;;;;;;3.92;2.22;;;17.70;68.30;;;;;;4191770;28;20522;-61
2023/06/01 02:54:26;;;;;;;7.25;2.80;;;17.70;67.40;;;;;;4191687;28;20055;-61
2023/06/01 02:57:08;;;;;;;5.75;2.30;;;17.70;67.60;;;;;;4195141;28;20510;-61
2023/06/01 02:59:55;;;;;;;3.97;2.50;;;17.70;67.70;;;;;;4201803;28;20487;-61
2023/06/01 03:02:37;;;;;;;5.72;2.42;;;17.70;67.90;;;;;;4207686;28;20151;-61
2023/06/01 03:05:18;;;;;;;5.68;3.13;;;17.70;68.10;;;;;;4175254;28;20056;-61
2023/06/01 03:08:07;;;;;;;5.82;2.78;;;17.70;68.20;;;;;;4174879;28;20056;-61
2023/06/01 03:10:48;;;;;;;5.13;2.65;;;17.70;68.00;;;;;;4173960;28;20056;-60
2023/06/01 03:13:35;;;;;;;4.93;2.70;;;17.70;68.30;;;;;;4189959;28;20055;-61
2023/06/01 03:16:17;;;;;;;4.60;2.63;;;17.70;68.40;;;;;;4191668;28;20449;-61
2023/06/01 03:19:14;;;;;;;4.32;2.58;;;17.70;68.70;;;;;;4191095;28;20051;-60
2023/06/01 03:21:56;;;;;;;6.45;2.80;;;17.70;68.70;;;;;;4197561;28;20059;-60
2023/06/01 03:24:41;;;;;;;5.75;2.83;;;17.70;68.90;;;;;;4208013;28;20506;-61
2023/06/01 03:27:24;;;;;;;7.40;2.95;;;17.70;68.40;;;;;;4207997;28;20387;-61
2023/06/01 03:30:09;;;;;;;2.97;2.60;;;17.70;68.30;;;;;;4184786;28;20051;-62
2023/06/01 03:32:51;;;;;;;7.65;3.10;;;17.70;67.80;;;;;;4194072;28;20282;-62
2023/06/01 03:35:32;;;;;;;7.47;3.05;;;17.70;67.80;;;;;;4192625;28;20048;-63
2023/06/01 03:38:13;;;;;;;12.25;3.83;;;17.70;68.00;;;;;;4191424;28;20536;-63
2023/06/01 03:40:55;;;;;;;5.32;3.70;;;17.70;68.30;;;;;;4191120;28;20574;-62
2023/06/01 03:43:36;;;;;;;5.57;3.42;;;17.70;68.40;;;;;;4192183;28;20106;-62
2023/06/01 03:46:17;;;;;;;5.18;3.00;;;17.60;68.00;;;;;;4181893;28;20101;-62
2023/06/01 03:48:59;;;;;;;7.90;4.00;;;17.60;68.20;;;;;;4196928;28;20518;-62
2023/06/01 03:51:40;;;;;;;8.50;3.60;;;17.60;68.60;;;;;;4191127;28;20503;-62
2023/06/01 03:54:22;;;;;;;10.18;3.85;;;17.60;68.90;;;;;;4190653;28;20391;-62
2023/06/01 03:57:06;;;;;;;9.90;3.83;;;17.60;69.00;;;;;;4190963;28;20048;-62
2023/06/01 03:59:47;;;;;;;9.90;3.65;;;17.60;68.80;;;;;;4179025;28;20051;-62
2023/06/01 04:02:30;;;;;;;8.25;4.05;;;17.60;69.00;;;;;;4182169;28;20047;-62
2023/06/01 04:05:16;;;;;;;10.40;3.92;;;17.60;69.20;;;;;;4191176;28;20046;-62
2023/06/01 04:07:57;;;;;;;10.32;3.90;;;17.60;69.00;;;;;;4190821;28;20177;-62
2023/06/01 04:10:41;;;;;;;10.15;3.85;;;17.60;69.70;;;;;;4190968;28;20063;-62
2023/06/01 04:13:24;;;;;;;12.98;3.95;;;17.60;69.00;;;;;;4191057;28;20064;-62
2023/06/01 04:16:08;;;;;;;8.60;3.90;;;17.60;70.10;;;;;;4162986;28;20048;-61
2023/06/01 04:18:49;;;;;;;7.68;3.50;;;17.60;69.50;;;;;;4177752;28;20065;-62
2023/06/01 04:21:33;;;;;;;10.25;3.85;;;17.60;69.40;;;;;;4175354;28;20056;-62
2023/06/01 04:24:14;;;;;;;9.63;4.07;;;17.60;69.60;;;;;;4174276;28;20056;-62
2023/06/01 04:26:58;;;;;;;11.52;3.97;;;17.60;69.30;;;;;;4179164;28;22225;-62
2023/06/01 04:29:43;;;;;;;7.60;3.80;;;17.60;69.60;;;;;;4191971;28;20063;-62
2023/06/01 04:32:27;;;;;;;6.53;3.08;;;17.60;70.00;;;;;;4190315;28;20137;-62
2023/06/01 04:35:09;;;;;;;8.57;3.15;;;17.60;70.20;;;;;;4190557;28;20044;-62
2023/06/01 04:37:50;;;;;;;5.30;2.83;;;17.60;70.10;;;;;;4173585;28;20109;-63
2023/06/01 04:40:31;;;;;;;8.00;3.38;;;17.60;70.10;;;;;;4187289;28;20494;-64
2023/06/01 04:43:12;;;;;;;7.30;3.10;;;17.50;70.00;;;;;;4194859;28;20078;-62
2023/06/01 04:45:55;;;;;;;7.78;2.63;;;17.60;70.30;;;;;;4194064;28;20406;-62
2023/06/01 04:48:37;;;;;;;4.47;2.25;;;17.60;70.50;;;;;;4194694;28;20083;-62
2023/06/01 04:51:20;;;;;;;5.65;3.03;;;17.60;70.40;;;;;;4193571;28;20071;-63
2023/06/01 04:54:01;;;;;;;10.90;3.45;;;17.50;70.50;;;;;;4196353;28;20182;-62
2023/06/01 04:56:42;;;;;;;7.15;3.10;;;17.60;71.60;;;;;;4193567;28;20165;-63
2023/06/01 04:59:23;;;;;;;7.40;3.22;;;17.60;70.70;;;;;;4194794;28;20427;-62
2023/06/01 05:02:06;;;;;;;9.38;3.47;;;17.50;71.60;;;;;;4194810;28;20171;-62
2023/06/01 05:04:47;;;;;;;7.82;3.42;;;17.50;71.00;;;;;;4169295;28;20072;-62
2023/06/01 05:07:28;;;;;;;8.52;3.50;;;17.60;71.20;;;;;;4176674;28;20056;-62
2023/06/01 05:10:11;;;;;;;4.53;2.97;;;17.50;71.40;;;;;;4190977;28;20063;-62
2023/06/01 05:12:57;;;;;;;4.45;2.47;;;17.60;71.50;;;;;;4193419;28;20055;-61
2023/06/01 05:15:38;;;;;;;9.10;2.85;;;17.50;71.50;;;;;;4193204;28;20509;-62
2023/06/01 05:18:21;;;;;;;6.38;3.00;;;17.50;71.70;;;;;;4176554;28;20064;-62
2023/06/01 05:21:03;;;;;;;5.03;2.45;;;17.50;71.90;;;;;;4176415;28;20052;-62
2023/06/01 05:23:44;;;;;;;5.07;2.65;;;17.50;72.00;;;;;;4177039;28;20052;-61
2023/06/01 05:26:26;;;;;;;5.93;2.95;;;17.50;72.40;;;;;;4189014;28;20051;-62
2023/06/01 05:29:07;;;;;;;2.58;2.38;;;17.50;72.40;;;;;;4194439;28;20052;-61
2023/06/01 05:31:49;;;;;;;4.53;2.65;;;17.60;72.70;;;;;;4193192;28;20051;-61
2023/06/01 05:34:32;;;;;;;3.20;2.35;;;17.60;72.90;;;;;;4194726;28;20055;-61
2023/06/01 05:37:13;;;;;;;5.00;2.40;;;17.60;73.10;;;;;;4210737;28;20062;-61
2023/06/01 05:39:54;;;;;;;5.07;2.25;;;17.60;73.10;;;;;;4209663;28;20182;-61
2023/06/01 05:42:36;;;;;;;7.40;2.40;;;17.60;73.90;;;;;;4196131;28;20070;-60
2023/06/01 05:45:16;;;;;;;3.17;2.15;;;17.60;73.10;;;;;;4208989;28;20059;-60
2023/06/01 05:47:57;;;;;;;1.95;1.75;;;17.60;73.20;;;;;;4197972;28;20055;-61
2023/06/01 05:50:40;;;;;;;2.35;2.15;;;17.60;73.50;;;;;;4209664;28;20059;-61
2023/06/01 05:53:24;;;;;;;2.38;1.70;;;17.60;73.50;;;;;;4209696;28;20059;-61
2023/06/01 05:56:06;;;;;;;4.60;2.10;;;17.60;73.30;;;;;;4209097;28;20380;-60
2023/06/01 05:58:50;;;;;;;1.45;1.35;;;17.60;73.50;;;;;;4208275;28;21677;-60
2023/06/01 06:01:31;;;;;;;1.42;1.33;;;17.60;73.80;;;;;;4201763;28;20047;-60
2023/06/01 06:04:12;;;;;;;3.95;1.63;;;17.60;73.80;;;;;;4193097;28;20051;-61
2023/06/01 06:06:55;;;;;;;3.20;1.70;;;17.60;73.80;;;;;;4187882;28;20130;-60
2023/06/01 06:09:36;;;;;;;3.45;1.50;;;17.60;73.80;;;;;;4193423;28;20052;-61
2023/06/01 06:12:17;;;;;;;4.15;1.80;;;17.60;73.90;;;;;;4193771;28;20086;-61
2023/06/01 06:14:58;;;;;;;2.97;1.83;;;17.60;73.90;;;;;;4193377;28;20063;-60
2023/06/01 06:17:39;;;;;;;2.85;1.65;;;17.60;74.00;;;;;;4192873;28;20145;-60
2023/06/01 06:20:21;;;;;;;3.78;2.10;;;17.60;74.10;;;;;;4176671;28;20399;-61
2023/06/01 06:23:04;;;;;;;4.38;2.30;;;17.60;74.10;;;;;;4175355;28;20083;-60
2023/06/01 06:25:48;;;;;;;2.88;1.60;;;17.50;74.10;;;;;;4192034;28;20060;-61
2023/06/01 06:28:28;;;;;;;3.22;1.98;;;17.50;74.20;;;;;;4192404;28;20051;-60
2023/06/01 06:31:10;;;;;;;4.80;1.60;;;17.50;74.40;;;;;;4192262;28;20171;-60
2023/06/01 06:33:51;;;;;;;4.47;1.98;;;17.50;74.50;;;;;;4191954;28;20114;-61
2023/06/01 06:36:31;;;;;;;1.70;1.60;;;17.50;74.60;;;;;;4192758;28;20687;-60
2023/06/01 06:39:15;;;;;;;2.28;1.55;;;17.50;74.90;;;;;;4181386;28;20174;-62
2023/06/01 06:41:56;;;;;;;1.40;1.25;;;17.50;75.00;;;;;;4190109;28;20055;-61
2023/06/01 06:44:40;;;;;;;2.97;1.58;;;17.50;74.90;;;;;;4191773;28;20059;-55
2023/06/01 06:47:21;;;;;;;3.53;2.08;;;17.50;75.00;;;;;;4199303;28;20121;-56
2023/06/01 06:50:03;;;;;;;2.00;1.23;;;17.50;75.00;;;;;;4198600;28;20392;-63
2023/06/01 06:52:43;;;;;;;;;;;17.50;75.00;;;;;;4193233;28;20051;-63
2023/06/01 06:55:26;;;;;;;4.80;1.30;;;17.50;75.20;;;;;;4199435;28;20290;-56
2023/06/01 06:58:07;;;;;;;1.40;1.30;;;17.50;74.80;;;;;;4197812;28;20052;-61
2023/06/01 07:00:48;;;;;;;1.50;1.40;;;17.50;75.00;;;;;;4192204;28;20051;-62
2023/06/01 07:03:29;;;;;;;3.40;1.65;;;17.50;75.30;;;;;;4192185;28;20146;-56
2023/06/01 07:06:11;;;;;;;;;;;17.50;75.30;;;;;;4195229;28;20050;-63
2023/06/01 07:08:52;;;;;;;;;;;17.50;75.20;;;;;;4196694;28;19931;-63
2023/06/01 07:11:34;;;;;;;5.07;2.33;;;17.50;75.00;;;;;;4192612;28;20408;-62
2023/06/01 07:14:16;;;;;;;3.38;1.95;;;17.50;74.90;;;;;;4192767;28;20083;-55
2023/06/01 07:16:57;;;;;;;4.38;2.42;;;17.50;74.90;;;;;;4191940;28;20122;-56
2023/06/01 07:19:38;;;;;;;3.40;2.63;;;17.50;74.80;;;;;;4193911;28;20127;-62
2023/06/01 07:22:21;;;;;;;3.55;2.40;;;17.50;75.00;;;;;;4208742;28;20051;-56
2023/06/01 07:25:02;;;;;;;4.78;2.80;;;17.50;75.30;;;;;;4208643;28;20097;-56
2023/06/01 07:27:45;;;;;;;3.58;2.35;;;17.50;75.30;;;;;;4209042;28;20132;-54
2023/06/01 07:30:26;;;;;;;6.88;3.00;;;17.50;75.50;;;;;;4209087;28;20047;-55
2023/06/01 07:33:08;;;;;;;5.70;2.70;;;17.50;75.70;;;;;;4207953;28;20043;-63
2023/06/01 07:35:52;;;;;;;5.70;3.38;;;17.40;75.60;;;;;;4206832;28;20059;-55
2023/06/01 07:38:33;;;;;;;7.05;3.03;;;17.50;75.90;;;;;;4197515;28;20126;-63
2023/06/01 07:41:14;;;;;;;4.45;2.60;;;17.50;75.70;;;;;;4192010;28;20621;-63
2023/06/01 07:43:57;;;;;;;5.07;2.50;;;17.50;75.80;;;;;;4191939;28;20052;-63
2023/06/01 07:46:38;;;;;;;5.75;2.65;;;17.40;75.60;;;;;;4191893;28;20078;-63
2023/06/01 07:49:19;;;;;;;4.55;2.38;;;17.50;75.80;;;;;;4184073;28;20480;-64
2023/06/01 07:52:00;;;;;;;3.15;2.20;;;17.50;76.30;;;;;;4175281;28;20059;-65
2023/06/01 07:54:41;;;;;;;4.53;2.80;;;17.50;76.20;;;;;;4179296;28;20055;-64
2023/06/01 07:57:23;;;;;;;3.92;2.17;;;17.50;76.00;;;;;;4176837;28;20074;-64
2023/06/01 08:00:11;;;;;;;3.95;2.45;;;17.50;76.00;;;;;;4181774;28;20063;-64
2023/06/01 08:02:53;;;;;;;4.15;2.55;;;17.50;76.00;;;;;;4183198;28;20067;-64
2023/06/01 08:05:35;;;;;;;7.22;2.65;;;17.50;75.70;;;;;;4181458;28;20174;-64
2023/06/01 08:08:18;;;;;;;6.13;2.90;;;17.50;76.10;;;;;;4171898;28;20095;-64
2023/06/01 08:11:00;;;;;;;3.95;3.00;;;17.50;76.00;;;;;;4176272;28;20063;-64
2023/06/01 08:13:41;;;;;;;6.18;3.05;;;17.50;75.80;;;;;;4180437;28;20047;-58
2023/06/01 08:16:25;;;;;;;6.82;3.13;;;17.50;75.90;;;;;;4191314;28;20109;-58
2023/06/01 08:19:07;;;;;;;4.85;2.80;;;17.50;75.90;;;;;;4182930;28;20098;-63
2023/06/01 08:21:49;;;;;;;4.70;3.00;;;17.40;75.70;;;;;;4176531;28;20290;-63
2023/06/01 08:24:32;;;;;;;6.78;2.95;;;17.40;75.70;;;;;;4188893;28;20055;-63
2023/06/01 08:27:20;;;;;;;8.20;3.40;;;17.40;75.90;;;;;;4180109;28;20052;-64
2023/06/01 08:30:03;;;;;;;6.05;3.83;;;17.40;76.20;;;;;;4178629;28;20063;-58
2023/06/01 08:32:46;;;;;;;8.20;3.67;;;17.40;76.00;;;;;;4182524;28;20606;-63
2023/06/01 08:35:27;;;;;;;11.70;3.42;;;17.40;75.70;;;;;;4189133;28;20471;-63
2023/06/01 08:38:08;;;;;;;6.45;3.55;;;17.40;75.50;;;;;;4184062;28;20059;-63
2023/06/01 08:40:49;;;;;;;9.00;3.45;;;17.40;75.60;;;;;;4181881;28;20075;-59
2023/06/01 08:43:33;;;;;;;4.63;3.15;;;17.40;75.70;;;;;;4182868;28;20063;-58
2023/06/01 08:46:16;;;;;;;4.75;2.40;;;17.40;75.40;;;;;;4180301;28;20052;-64
2023/06/01 08:48:59;;;;;;;7.38;2.63;;;17.40;75.00;;;;;;4178097;28;20059;-64
2023/06/01 08:51:43;;;;;;;5.80;2.53;;;17.40;75.10;;;;;;4179540;28;20055;-59
2023/06/01 08:54:24;;;;;;;6.07;2.72;;;17.40;75.00;;;;;;4184657;28;20048;-58
2023/06/01 08:57:07;;;;;;;7.70;2.55;;;17.40;74.40;;;;;;4177354;28;20511;-58
2023/06/01 08:59:49;;;;;;;10.88;2.72;;;17.40;73.70;;;;;;4181312;28;20094;-57
2023/06/01 09:02:30;;;;;;;7.60;3.10;;;17.40;74.80;;;;;;4179614;28;20132;-63
2023/06/01 09:05:13;;;;;;;7.82;2.60;;;17.40;73.50;;;;;;4186887;28;20047;-57
2023/06/01 09:07:55;;;;;;;5.53;2.65;;;17.40;73.20;;;;;;4179339;28;20059;-63
2023/06/01 09:10:37;;;;;;;9.77;2.72;;;17.40;73.00;;;;;;4182818;28;20052;-62
2023/06/01 09:13:32;;;;;;;7.88;3.13;;;17.40;72.50;;;;;;4175664;28;20095;-57
2023/06/01 09:16:13;;;;;;;7.45;2.58;;;17.40;72.20;;;;;;4176441;28;20079;-62
2023/06/01 09:18:55;;;;;;;6.43;2.50;;;17.40;72.40;;;;;;4178222;28;20047;-62
2023/06/01 09:21:37;;;;;;;3.92;2.33;;;17.40;71.80;;;;;;4178441;28;20499;-62
2023/06/01 09:24:19;;;;;;;6.47;2.65;;;17.30;71.50;;;;;;4180932;28;20111;-63
2023/06/01 09:27:02;;;;;;;6.20;2.42;;;17.30;71.50;;;;;;4178556;28;20059;-63
2023/06/01 09:29:54;;;;;;;5.18;2.30;;;17.30;71.10;;;;;;4181518;28;20039;-62
2023/06/01 09:32:35;;;;;;;6.57;2.72;;;17.30;71.30;;;;;;4178883;28;20475;-57
2023/06/01 09:35:16;;;;;;;7.53;2.72;;;17.30;71.80;;;;;;4181731;28;20051;-57
2023/06/01 09:38:03;;;;;;;5.70;2.55;;;17.30;71.70;;;;;;4183772;28;20078;-62
2023/06/01 09:40:57;;;;;;;6.07;2.20;;;17.30;71.50;;;;;;4180835;28;20060;-62
2023/06/01 09:43:38;;;;;;;5.93;2.58;;;17.30;70.80;;;;;;4177590;28;20432;-58
2023/06/01 09:46:19;;;;;;;9.88;2.65;;;17.30;71.80;;;;;;4185124;28;20137;-57
2023/06/01 09:49:06;;;;;;;;;;;17.30;72.80;;;;;;4184125;28;20044;-58
2023/06/01 09:51:47;;;;;;;10.43;2.90;;;17.30;71.70;;;;;;4176951;28;20131;-59
2023/06/01 09:54:30;;;;;;;6.45;2.65;;;17.30;71.90;;;;;;4183648;28;20047;-64
2023/06/01 09:57:12;;;;;;;6.70;2.35;;;17.30;72.20;;;;;;4181903;28;20051;-64
2023/06/01 09:59:54;;;;;;;5.20;2.15;;;17.40;72.10;;;;;;4175512;28;20504;-64
2023/06/01 10:02:35;;;;;;;4.53;2.47;;;17.40;71.30;;;;;;4177143;28;20051;-59
2023/06/01 10:05:17;;;;;;;6.28;2.58;;;17.40;71.60;;;;;;4185009;28;20052;-58
2023/06/01 10:07:58;;;;;;;4.90;2.47;;;17.40;71.00;;;;;;4182566;28;20060;-64
2023/06/01 10:10:43;;;;;;;6.70;2.70;;;17.40;70.40;;;;;;4174935;28;20404;-64
2023/06/01 10:13:24;;;;;;;9.48;2.85;;;17.40;70.20;;;;;;4181967;28;20144;-63
2023/06/01 10:16:07;;;;;;;7.32;2.63;;;17.40;70.60;;;;;;4185270;28;20063;-58
2023/06/01 10:18:50;;;;;;;7.10;3.13;;;17.40;69.80;;;;;;4174732;28;20056;-59
2023/06/01 10:21:32;;;;;;;7.40;2.80;;;17.40;70.00;;;;;;4187949;28;20051;-58
2023/06/01 10:24:15;;;;;;;8.02;2.95;;;17.40;70.20;;;;;;4190033;28;20113;-59
2023/06/01 10:27:06;;;;;;;5.43;2.53;;;17.40;70.10;;;;;;4181798;28;20059;-58
2023/06/01 10:29:48;;;;;;;5.72;2.92;;;17.40;71.00;;;;;;4182091;28;20519;-58
2023/06/01 10:32:47;;;;;;;8.98;3.00;;;17.40;70.70;;;;;;4188584;28;20078;-63
2023/06/01 10:36:01;;;;;;;8.68;3.50;;;17.40;69.90;;;;;;4174240;28;20111;-63
2023/06/01 10:38:43;;;;;;;10.50;2.58;;;17.40;69.60;;;;;;4172499;28;20411;-58
2023/06/01 10:41:30;;;;;;;12.25;2.72;;;17.50;70.50;;;;;;4181400;28;20068;-58
2023/06/01 10:44:48;;;;;;;11.73;3.13;;;17.40;70.70;;;;;;4189395;28;20068;-58
2023/06/01 10:47:47;;;;;;;6.13;2.38;;;17.50;70.60;;;;;;4180600;28;20063;-58
2023/06/01 10:50:28;;;;;;;9.68;3.05;;;17.50;71.00;;;;;;4174171;28;20424;-63
2023/06/01 10:53:26;;;;;;;6.20;2.70;;;17.50;70.80;;;;;;4186743;28;20105;-58
2023/06/01 10:56:21;;;;;;;8.60;3.00;;;17.50;69.80;;;;;;4174173;28;20064;-58
2023/06/01 10:59:13;;;;;;;10.98;3.00;;;17.50;70.00;;;;;;4182658;28;20059;-58
2023/06/01 11:02:05;;;;;;;6.75;2.67;;;17.50;70.50;;;;;;4175421;28;20618;-58
2023/06/01 11:04:46;;;;;;;8.95;2.50;;;17.50;69.60;;;;;;4179524;28;20130;-58
2023/06/01 11:07:38;;;;;;;6.38;2.35;;;17.50;69.40;;;;;;4185290;28;20075;-63
2023/06/01 11:10:49;;;;;;;7.03;2.65;;;17.50;69.80;;;;;;4176603;28;20068;-58
2023/06/01 11:13:32;;;;;;;6.60;2.03;;;17.50;69.50;;;;;;4173711;28;20130;-57
2023/06/01 11:16:31;;;;;;;6.65;2.58;;;17.50;69.70;;;;;;4186977;28;20078;-58
2023/06/01 11:19:20;;;;;;;7.68;2.70;;;17.50;69.00;;;;;;4175339;28;20060;-58
2023/06/01 11:22:03;;;;;;;4.45;2.17;;;17.50;69.80;;;;;;4174748;28;20060;-63
2023/06/01 11:24:47;;;;;;;6.55;2.20;;;17.50;70.00;;;;;;4189073;28;20508;-63
2023/06/01 11:27:30;;;;;;;4.93;2.20;;;17.50;69.50;;;;;;4178316;28;20073;-65
2023/06/01 11:30:11;;;;;;;6.30;2.40;;;17.50;69.10;;;;;;4185235;28;20059;-63
2023/06/01 11:32:58;;;;;;;5.78;2.45;;;17.50;69.20;;;;;;4173501;28;20052;-58
2023/06/01 11:35:39;;;;;;;6.60;2.45;;;17.50;69.30;;;;;;4187460;28;20059;-63
2023/06/01 11:38:20;;;;;;;4.53;1.75;;;17.60;69.60;;;;;;4180810;28;20065;-63
2023/06/01 11:41:01;;;;;;;4.43;2.00;;;17.60;69.70;;;;;;4176399;28;20063;-63
2023/06/01 11:43:43;;;;;;;5.60;2.13;;;17.60;70.10;;;;;;4173285;28;20447;-58
2023/06/01 11:46:26;;;;;;;3.65;2.22;;;17.50;69.80;;;;;;4184551;28;20143;-58
2023/06/01 11:49:09;;;;;;;4.85;2.40;;;17.60;69.20;;;;;;4181653;28;20055;-58
2023/06/01 11:51:52;;;;;;;5.88;2.13;;;17.60;69.60;;;;;;4184641;28;20077;-58
2023/06/01 11:54:33;;;;;;;4.32;2.40;;;17.60;68.80;;;;;;4179425;28;20052;-58
2023/06/01 11:57:14;;;;;;;;;;;17.60;69.10;;;;;;4177455;28;20519;-58
2023/06/01 11:59:55;;;;;;;8.32;3.22;;;17.60;69.00;;;;;;4173962;28;19939;-58
2023/06/01 12:02:36;;;;;;;4.03;2.50;;;17.60;68.80;;;;;;4176123;28;20625;-58
2023/06/01 12:05:20;;;;;;;6.35;2.30;;;17.60;68.50;;;;;;4186768;28;20059;-58
2023/06/01 12:08:01;;;;;;;7.75;3.20;;;17.60;68.20;;;;;;4174702;28;20044;-63
2023/06/01 12:10:45;;;;;;;5.35;2.40;;;17.60;68.90;;;;;;4173865;28;20431;-63
2023/06/01 12:13:27;;;;;;;5.40;2.50;;;17.60;69.00;;;;;;4186633;28;20067;-63
2023/06/01 12:16:08;;;;;;;8.27;2.60;;;17.60;69.00;;;;;;4184787;28;20043;-58
2023/06/01 12:19:10;;;;;;;5.07;2.42;;;17.60;69.30;;;;;;4171980;28;20388;-58
2023/06/01 12:21:54;;;;;;;5.68;2.67;;;17.60;69.30;;;;;;4171980;28;20052;-58
2023/06/01 12:24:36;;;;;;;8.75;3.05;;;17.60;69.50;;;;;;4176742;28;20105;-63
2023/06/01 12:27:19;;;;;;;8.30;3.07;;;17.60;69.80;;;;;;4185918;28;20056;-58
2023/06/01 12:30:02;;;;;;;8.68;2.78;;;17.60;69.60;;;;;;4184404;28;20056;-59
2023/06/01 12:32:43;;;;;;;8.77;2.75;;;17.60;69.80;;;;;;4174175;28;20174;-63
2023/06/01 12:35:24;;;;;;;10.23;3.45;;;17.60;69.90;;;;;;4173645;28;20527;-64
2023/06/01 12:38:09;;;;;;;12.07;2.90;;;17.60;70.00;;;;;;4183430;28;20090;-63
2023/06/01 12:41:08;;;;;;;9.43;3.10;;;17.60;70.00;;;;;;4178591;28;20064;-63
2023/06/01 12:43:50;;;;;;;5.15;2.50;;;17.60;69.90;;;;;;4172683;28;20056;-58
2023/06/01 12:46:32;;;;;;;;;;;17.60;69.90;;;;;;4185183;28;20097;-58
2023/06/01 12:49:13;;;;;;;;;;;17.60;69.10;;;;;;4185635;28;19958;-63
2023/06/01 12:51:55;;;;;;;7.32;2.53;;;17.60;69.50;;;;;;4172909;28;20154;-58
2023/06/01 12:54:37;;;;;;;;;;;17.60;69.70;;;;;;4187991;28;20048;-63
2023/06/01 12:57:18;;;;;;;11.50;3.58;;;17.60;69.70;;;;;;4184806;28;19931;-58
2023/06/01 13:00:00;;;;;;;9.95;2.90;;;17.60;69.10;;;;;;4177990;28;20412;-63
2023/06/01 13:02:42;;;;;;;18.55;7.72;;;17.50;68.80;;;;;;4182277;28;20407;-58
2023/06/01 13:05:23;;;;;;;6.63;2.95;;;17.50;69.20;;;;;;4176374;28;20059;-58
2023/06/01 13:08:05;;;;;;;5.78;2.88;;;17.50;69.20;;;;;;4178259;28;20376;-63
2023/06/01 13:10:47;;;;;;;5.93;2.67;;;17.50;68.90;;;;;;4185310;28;20055;-58
2023/06/01 13:13:28;;;;;;;8.02;2.92;;;17.50;68.60;;;;;;4181235;28;20876;-63
2023/06/01 13:16:09;;;;;;;5.30;2.90;;;17.60;68.50;;;;;;4178039;28;20134;-63
2023/06/01 13:18:51;;;;;;;7.05;2.40;;;17.50;68.30;;;;;;4182025;28;20129;-58
2023/06/01 13:21:33;;;;;;;7.18;2.42;;;17.60;68.30;;;;;;4175497;28;20056;-62
2023/06/01 13:24:14;;;;;;;3.20;1.80;;;17.50;68.00;;;;;;4177264;28;20388;-58
2023/06/01 13:26:56;;;;;;;8.57;2.40;;;17.60;67.60;;;;;;4183548;28;20435;-62
2023/06/01 13:29:38;;;;;;;3.80;1.88;;;17.60;67.80;;;;;;4185638;28;20059;-62
2023/06/01 13:32:19;;;;;;;5.22;1.98;;;17.60;67.40;;;;;;4176154;28;20075;-62
2023/06/01 13:35:00;;;;;;;;;;;17.60;67.60;;;;;;4177632;28;20063;-63
2023/06/01 13:37:42;;;;;;;6.88;2.35;;;17.60;67.20;;;;;;4175365;28;19948;-57
2023/06/01 13:40:24;;;;;;;3.47;1.92;;;17.50;66.90;;;;;;4180046;28;20515;-63
2023/06/01 13:43:07;;;;;;;8.05;2.53;;;17.50;66.80;;;;;;4188738;28;20035;-58
2023/06/01 13:45:48;;;;;;;5.43;2.13;;;17.50;67.50;;;;;;4192144;28;20404;-63
2023/06/01 13:48:29;;;;;;;5.10;2.30;;;17.60;67.60;;;;;;4192086;28;20178;-63
2023/06/01 13:51:10;;;;;;;6.95;1.63;;;17.50;67.90;;;;;;4192110;28;20056;-63
2023/06/01 13:53:52;;;;;;;12.13;2.20;;;17.50;68.50;;;;;;4192662;28;20571;-62
2023/06/01 13:56:33;;;;;;;5.40;1.25;;;17.50;68.70;;;;;;4192864;28;20129;-62
2023/06/01 13:59:15;;;;;;;4.65;2.03;;;17.50;68.90;;;;;;4191695;28;20047;-58
2023/06/01 14:01:57;;;;;;;8.73;1.58;;;17.60;68.90;;;;;;4192886;28;20055;-64
2023/06/01 14:04:38;;;;;;;3.47;1.70;;;17.50;69.00;;;;;;4190462;28;20175;-58
2023/06/01 14:07:19;;;;;;;5.35;2.00;;;17.60;68.90;;;;;;4190872;28;20749;-63
2023/06/01 14:10:00;;;;;;;;;;;17.60;68.90;;;;;;4192826;28;20063;-63
2023/06/01 14:12:41;;;;;;;3.35;1.55;;;17.50;68.90;;;;;;4190195;28;19931;-63